createdAt,value
2019-02-11T00:00:30.974Z,98668.00
2019-02-11T00:03:04.105Z,98679.00
2019-02-11T00:05:35.641Z,98690.00
2019-02-11T00:08:07.154Z,98695.00
2019-02-11T00:10:38.649Z,98703.00
2019-02-11T00:13:10.946Z,98718.00
2019-02-11T00:15:42.541Z,98716.00
2019-02-11T00:18:13.987Z,98727.00
2019-02-11T00:20:45.424Z,98736.00
2019-02-11T00:23:16.860Z,98738.00
2019-02-11T00:25:48.303Z,98760.00
2019-02-11T00:28:19.770Z,98748.00
2019-02-11T00:30:51.187Z,98757.00
2019-02-11T00:33:22.640Z,98766.00
2019-02-11T00:35:54.073Z,98765.00
2019-02-11T00:38:28.297Z,98775.00
2019-02-11T00:40:59.715Z,98777.00
2019-02-11T00:43:31.289Z,98783.00
2019-02-11T00:46:02.701Z,98804.00
2019-02-11T00:48:35.507Z,98802.00
2019-02-11T00:51:07.966Z,98818.00
2019-02-11T00:53:39.616Z,98821.00
2019-02-11T00:56:11.117Z,98826.00
2019-02-11T00:58:42.619Z,98829.00
2019-02-11T01:01:15.157Z,98833.00
2019-02-11T01:03:46.791Z,98844.00
2019-02-11T01:06:19.299Z,98843.00
2019-02-11T01:08:50.763Z,98852.00
2019-02-11T01:11:22.253Z,98853.00
2019-02-11T01:13:53.722Z,98866.00
2019-02-11T01:16:25.238Z,98846.00
2019-02-11T01:18:56.739Z,98864.00
2019-02-11T01:21:28.191Z,98869.00
2019-02-11T01:23:59.805Z,98873.00
2019-02-11T01:26:31.295Z,98871.00
2019-02-11T01:29:02.751Z,98895.00
2019-02-11T01:31:34.178Z,98893.00
2019-02-11T01:34:07.289Z,98904.00
2019-02-11T01:36:38.729Z,98904.00
2019-02-11T01:39:10.217Z,98914.00
2019-02-11T01:41:41.642Z,98914.00
2019-02-11T01:44:13.175Z,98916.00
2019-02-11T01:46:44.611Z,98927.00
2019-02-11T01:49:16.089Z,98928.00
2019-02-11T01:51:47.597Z,98941.00
2019-02-11T01:54:19.094Z,98924.00
2019-02-11T01:56:50.520Z,98930.00
2019-02-11T01:59:22.053Z,98954.00
2019-02-11T02:01:53.639Z,98942.00
2019-02-11T02:04:25.189Z,98971.00
2019-02-11T02:06:56.651Z,98970.00
2019-02-11T02:09:28.208Z,98982.00
2019-02-11T02:11:59.915Z,98974.00
2019-02-11T02:14:31.366Z,98983.00
2019-02-11T02:17:02.846Z,98984.00
2019-02-11T02:19:34.340Z,99001.00
2019-02-11T02:22:05.784Z,98999.00
2019-02-11T02:24:37.297Z,98996.00
2019-02-11T02:27:08.752Z,98993.00
2019-02-11T02:29:40.295Z,98994.00
2019-02-11T02:32:11.737Z,98996.00
2019-02-11T02:34:43.202Z,99016.00
2019-02-11T02:37:14.661Z,99006.00
2019-02-11T02:39:46.123Z,99018.00
2019-02-11T02:42:17.655Z,99018.00
2019-02-11T02:44:49.106Z,99019.00
2019-02-11T02:47:20.562Z,99023.00
2019-02-11T02:49:53.473Z,99028.00
2019-02-11T02:52:24.871Z,99036.00
2019-02-11T02:54:56.379Z,99031.00
2019-02-11T02:57:27.801Z,99009.00
2019-02-11T02:59:59.333Z,99058.00
2019-02-11T03:02:30.884Z,99049.00
2019-02-11T03:05:02.416Z,99044.00
2019-02-11T03:07:33.919Z,99054.00
2019-02-11T03:10:06.072Z,99061.00
2019-02-11T03:12:37.610Z,99069.00
2019-02-11T03:15:09.872Z,99069.00
2019-02-11T03:17:41.317Z,99080.00
2019-02-11T03:20:12.867Z,99078.00
2019-02-11T03:22:44.441Z,99077.00
2019-02-11T03:25:17.443Z,99090.00
2019-02-11T03:27:48.960Z,99094.00
2019-02-11T03:30:20.372Z,99096.00
2019-02-11T03:32:51.808Z,99111.00
2019-02-11T03:35:23.275Z,99105.00
2019-02-11T03:37:54.762Z,99109.00
2019-02-11T03:40:26.214Z,99115.00
2019-02-11T03:42:57.643Z,99134.00
2019-02-11T03:45:29.111Z,99133.00
2019-02-11T03:48:00.517Z,99140.00
2019-02-11T03:50:32.033Z,99135.00
2019-02-11T03:53:03.630Z,99143.00
2019-02-11T03:55:35.107Z,99144.00
2019-02-11T03:58:06.547Z,99155.00
2019-02-11T04:00:38.530Z,99151.00
2019-02-11T04:03:10.020Z,99165.00
2019-02-11T04:05:41.496Z,99176.00
2019-02-11T04:08:13.038Z,99182.00
2019-02-11T04:10:44.499Z,99182.00
2019-02-11T04:13:16.050Z,99186.00
2019-02-11T04:15:47.559Z,99179.00
2019-02-11T04:18:19.006Z,99202.00
2019-02-11T04:20:50.478Z,99198.00
2019-02-11T04:23:21.949Z,99199.00
2019-02-11T04:25:53.502Z,99201.00
2019-02-11T04:28:24.913Z,99205.00
2019-02-11T04:30:56.344Z,99206.00
2019-02-11T04:33:27.781Z,99210.00
2019-02-11T04:35:59.212Z,99210.00
2019-02-11T04:38:30.930Z,99219.00
2019-02-11T04:41:02.409Z,99223.00
2019-02-11T04:43:33.840Z,99230.00
2019-02-11T04:46:05.292Z,99233.00
2019-02-11T04:48:36.823Z,99243.00
2019-02-11T04:51:08.263Z,99245.00
2019-02-11T04:53:39.693Z,99256.00
2019-02-11T04:56:11.140Z,99267.00
2019-02-11T04:58:42.580Z,99262.00
2019-02-11T05:01:14.060Z,99267.00
2019-02-11T05:03:45.480Z,99285.00
2019-02-11T05:06:16.946Z,99279.00
2019-02-11T05:08:48.717Z,99288.00
2019-02-11T05:11:20.221Z,99297.00
2019-02-11T05:13:54.127Z,99297.00
2019-02-11T05:16:25.822Z,99312.00
2019-02-11T05:18:57.318Z,99319.00
2019-02-11T05:21:28.904Z,99319.00
2019-02-11T05:24:00.413Z,99324.00
2019-02-11T05:26:31.857Z,99323.00
2019-02-11T05:29:03.358Z,99319.00
2019-02-11T05:31:34.883Z,99313.00
2019-02-11T05:34:08.849Z,99326.00
2019-02-11T05:36:40.313Z,99338.00
2019-02-11T05:39:11.789Z,99339.00
2019-02-11T05:41:43.307Z,99343.00
2019-02-11T05:44:14.713Z,99343.00
2019-02-11T05:46:46.172Z,99330.00
2019-02-11T05:49:19.262Z,99359.00
2019-02-11T05:51:54.612Z,99346.00
2019-02-11T05:54:26.116Z,99349.00
2019-02-11T05:56:57.717Z,99374.00
2019-02-11T05:59:29.308Z,99374.00
2019-02-11T06:02:02.509Z,99364.00
2019-02-11T06:04:34.050Z,99392.00
2019-02-11T06:07:05.543Z,99382.00
2019-02-11T06:09:37.046Z,99373.00
2019-02-11T06:12:08.523Z,99410.00
2019-02-11T06:14:39.931Z,99402.00
2019-02-11T06:17:11.441Z,99402.00
2019-02-11T06:19:42.885Z,99426.00
2019-02-11T06:22:14.360Z,99420.00
2019-02-11T06:24:45.878Z,99424.00
2019-02-11T06:27:17.413Z,99432.00
2019-02-11T06:29:49.917Z,99432.00
2019-02-11T06:32:21.407Z,99448.00
2019-02-11T06:34:52.977Z,99462.00
2019-02-11T06:37:24.461Z,99474.00
2019-02-11T06:39:55.937Z,99501.00
2019-02-11T06:42:29.060Z,99487.00
2019-02-11T06:45:00.493Z,99492.00
2019-02-11T06:47:31.951Z,99515.00
2019-02-11T06:50:06.083Z,99518.00
2019-02-11T06:52:36.869Z,99523.00
2019-02-11T06:55:10.216Z,99525.00
2019-02-11T06:57:41.749Z,99535.00
2019-02-11T07:00:14.300Z,99539.00
2019-02-11T07:02:45.964Z,99540.00
2019-02-11T07:05:17.433Z,99568.00
2019-02-11T07:07:48.942Z,99567.00
2019-02-11T07:10:20.375Z,99572.00
2019-02-11T07:12:51.979Z,99573.00
2019-02-11T07:15:23.429Z,99585.00
2019-02-11T07:17:55.052Z,99595.00
2019-02-11T07:20:26.530Z,99603.00
2019-02-11T07:22:58.028Z,99605.00
2019-02-11T07:25:29.595Z,99611.00
2019-02-11T07:28:01.105Z,99626.00
2019-02-11T07:30:32.530Z,99615.00
2019-02-11T07:33:04.071Z,99632.00
2019-02-11T07:35:35.513Z,99640.00
2019-02-11T07:38:07.016Z,99643.00
2019-02-11T07:40:38.480Z,99641.00
2019-02-11T07:43:22.591Z,99646.00
2019-02-11T07:46:12.993Z,99654.00
2019-02-11T07:48:44.577Z,99672.00
2019-02-11T07:51:16.325Z,99664.00
2019-02-11T07:53:50.770Z,99667.00
2019-02-11T07:56:22.311Z,99661.00
2019-02-11T07:58:53.952Z,99679.00
2019-02-11T08:01:26.766Z,99684.00
2019-02-11T08:04:02.429Z,99684.00
2019-02-11T08:06:35.610Z,99692.00
2019-02-11T08:09:10.027Z,99696.00
2019-02-11T08:11:41.975Z,99706.00
2019-02-11T08:14:13.470Z,99704.00
2019-02-11T08:16:45.933Z,99704.00
2019-02-11T08:19:17.432Z,99706.00
2019-02-11T08:21:48.940Z,99723.00
2019-02-11T08:24:21.932Z,99721.00
2019-02-11T08:26:53.621Z,99731.00
2019-02-11T08:29:25.409Z,99728.00
2019-02-11T08:31:57.036Z,99725.00
2019-02-11T08:34:28.584Z,99740.00
2019-02-11T08:37:00.071Z,99711.00
2019-02-11T08:39:31.586Z,99748.00
2019-02-11T08:42:03.090Z,99748.00
2019-02-11T08:44:34.566Z,99756.00
2019-02-11T08:47:07.965Z,99769.00
2019-02-11T08:49:39.438Z,99765.00
2019-02-11T08:52:10.948Z,99770.00
2019-02-11T08:54:42.606Z,99766.00
2019-02-11T08:57:14.127Z,99765.00
2019-02-11T08:59:48.106Z,99777.00
2019-02-11T09:02:19.654Z,99796.00
2019-02-11T09:04:52.769Z,99810.00
2019-02-11T09:07:25.596Z,99817.00
2019-02-11T09:10:01.018Z,99804.00
2019-02-11T09:12:35.176Z,99813.00
2019-02-11T09:15:11.147Z,99837.00
2019-02-11T09:17:50.465Z,99832.00
2019-02-11T09:20:24.732Z,99876.00
2019-02-11T09:23:00.464Z,99853.00
2019-02-11T09:25:56.116Z,99843.00
2019-02-11T09:28:35.488Z,99852.00
2019-02-11T09:31:08.555Z,99877.00
2019-02-11T09:33:41.690Z,99881.00
2019-02-11T09:36:15.882Z,99892.00
2019-02-11T09:38:49.233Z,99896.00
2019-02-11T09:41:23.981Z,99905.00
2019-02-11T09:43:57.042Z,99905.00
2019-02-11T09:46:41.843Z,99915.00
2019-02-11T09:49:13.390Z,99923.00
2019-02-11T09:51:48.005Z,99940.00
2019-02-11T09:54:19.529Z,99932.00
2019-02-11T09:56:50.982Z,99937.00
2019-02-11T09:59:22.756Z,99969.00
2019-02-11T10:01:57.074Z,99957.00
2019-02-11T10:04:30.291Z,99968.00
2019-02-11T10:07:01.926Z,99969.00
2019-02-11T10:09:33.358Z,99975.00
2019-02-11T10:12:04.822Z,99984.00
2019-02-11T10:14:36.428Z,99996.00
2019-02-11T10:17:08.232Z,99988.00
2019-02-11T10:19:40.075Z,100008.00
2019-02-11T10:22:15.877Z,100006.00
2019-02-11T10:24:47.980Z,100013.00
2019-02-11T10:27:21.636Z,100020.00
2019-02-11T10:29:56.534Z,100021.00
2019-02-11T10:32:28.135Z,100038.00
2019-02-11T10:35:00.020Z,100034.00
2019-02-11T10:37:33.295Z,100032.00
2019-02-11T10:40:09.748Z,100052.00
2019-02-11T10:42:41.448Z,100056.00
2019-02-11T10:45:14.549Z,100060.00
2019-02-11T10:47:46.651Z,100065.00
2019-02-11T10:50:19.318Z,100069.00
2019-02-11T10:52:55.571Z,100080.00
2019-02-11T10:55:27.211Z,100097.00
2019-02-11T10:58:01.419Z,100083.00
2019-02-11T11:00:33.438Z,100091.00
2019-02-11T11:03:05.029Z,100100.00
2019-02-11T11:05:36.549Z,100093.00
2019-02-11T11:08:08.069Z,100111.00
2019-02-11T11:10:39.599Z,100117.00
2019-02-11T11:13:15.290Z,100131.00
2019-02-11T11:15:47.771Z,100131.00
2019-02-11T11:18:21.201Z,100133.00
2019-02-11T11:20:54.860Z,100132.00
2019-02-11T11:23:26.688Z,100149.00
2019-02-11T11:25:59.523Z,100156.00
2019-02-11T11:28:31.227Z,100156.00
2019-02-11T11:31:02.827Z,100160.00
2019-02-11T11:33:35.537Z,100168.00
2019-02-11T11:36:07.226Z,100171.00
2019-02-11T11:38:38.730Z,100194.00
2019-02-11T11:41:11.335Z,100179.00
2019-02-11T11:43:44.145Z,100187.00
2019-02-11T11:46:19.771Z,100202.00
2019-02-11T11:48:51.365Z,100200.00
2019-02-11T11:51:22.872Z,100215.00
2019-02-11T11:53:54.720Z,100215.00
2019-02-11T11:56:31.234Z,100215.00
2019-02-11T11:59:02.837Z,100231.00
2019-02-11T12:01:34.433Z,100227.00
2019-02-11T12:04:08.025Z,100230.00
2019-02-11T12:06:40.092Z,100236.00
2019-02-11T12:09:19.090Z,100239.00
2019-02-11T12:11:50.731Z,100246.00
2019-02-11T12:14:22.400Z,100259.00
2019-02-11T12:16:57.779Z,100269.00
2019-02-11T12:19:27.519Z,100261.00
2019-02-11T12:21:59.167Z,100277.00
2019-02-11T12:24:31.069Z,100287.00
2019-02-11T12:27:02.885Z,100277.00
2019-02-11T12:29:34.655Z,100285.00
2019-02-11T12:32:09.703Z,100297.00
2019-02-11T12:34:41.263Z,100292.00
2019-02-11T12:37:12.813Z,100302.00
2019-02-11T12:39:44.314Z,100308.00
2019-02-11T12:42:15.927Z,100315.00
2019-02-11T12:44:47.446Z,100331.00
2019-02-11T12:47:20.015Z,100340.00
2019-02-11T12:49:51.541Z,100323.00
2019-02-11T12:52:23.058Z,100334.00
2019-02-11T12:54:54.839Z,100342.00
2019-02-11T12:57:26.871Z,100361.00
2019-02-11T12:59:58.348Z,100379.00
2019-02-11T13:02:29.971Z,100358.00
2019-02-11T13:05:07.508Z,100399.00
2019-02-11T13:07:39.112Z,100385.00
2019-02-11T13:10:14.001Z,100385.00
2019-02-11T13:12:45.671Z,100390.00
2019-02-11T13:15:42.060Z,100392.00
2019-02-11T13:17:56.889Z,100416.00
2019-02-11T13:20:31.298Z,100404.00
2019-02-11T13:23:04.459Z,100426.00
2019-02-11T13:25:35.930Z,100435.00
2019-02-11T13:28:07.383Z,100447.00
2019-02-11T13:30:39.100Z,100443.00
2019-02-11T13:33:10.646Z,100445.00
2019-02-11T13:35:42.260Z,100450.00
2019-02-11T13:38:13.894Z,100452.00
2019-02-11T13:40:45.680Z,100461.00
2019-02-11T13:43:17.257Z,100465.00
2019-02-11T13:45:49.238Z,100481.00
2019-02-11T13:48:20.791Z,100475.00
2019-02-11T13:50:52.402Z,100484.00
2019-02-11T13:53:24.357Z,100492.00
2019-02-11T13:55:55.951Z,100508.00
2019-02-11T13:58:27.681Z,100494.00
2019-02-11T14:00:59.326Z,100516.00
2019-02-11T14:03:33.223Z,100519.00
2019-02-11T14:06:07.120Z,100526.00
2019-02-11T14:08:39.135Z,100534.00
2019-02-11T14:11:10.959Z,100544.00
2019-02-11T14:13:42.558Z,100588.00
2019-02-11T14:16:14.083Z,100557.00
2019-02-11T14:18:45.609Z,100579.00
2019-02-11T14:21:25.725Z,100574.00
2019-02-11T14:23:57.240Z,100572.00
2019-02-11T14:26:29.310Z,100575.00
2019-02-11T14:29:01.011Z,100591.00
2019-02-11T14:31:33.894Z,100607.00
2019-02-11T14:34:10.071Z,100597.00
2019-02-11T14:36:42.985Z,100607.00
2019-02-11T14:39:14.179Z,100610.00
2019-02-11T14:41:46.185Z,100619.00
2019-02-11T14:44:20.443Z,100619.00
2019-02-11T14:46:52.165Z,100636.00
2019-02-11T14:49:25.462Z,100639.00
2019-02-11T14:51:57.034Z,100640.00
2019-02-11T14:54:28.688Z,100653.00
2019-02-11T14:57:00.413Z,100668.00
2019-02-11T14:59:31.970Z,100657.00
2019-02-11T15:02:04.981Z,100676.00
2019-02-11T15:04:36.636Z,100660.00
2019-02-11T15:07:08.282Z,100706.00
2019-02-11T15:09:46.903Z,100693.00
2019-02-11T15:12:19.661Z,100689.00
2019-02-11T15:14:51.712Z,100695.00
2019-02-11T15:17:23.873Z,100694.00
2019-02-11T15:20:07.662Z,100708.00
2019-02-11T15:22:45.948Z,100702.00
2019-02-11T15:25:21.024Z,100724.00
2019-02-11T15:27:56.110Z,100725.00
2019-02-11T15:30:30.559Z,100710.00
2019-02-11T15:33:02.994Z,100733.00
2019-02-11T15:35:34.764Z,100746.00
2019-02-11T15:38:06.716Z,100748.00
2019-02-11T15:40:38.504Z,100745.00
2019-02-11T15:43:13.272Z,100742.00
2019-02-11T15:45:44.856Z,100749.00
2019-02-11T15:48:16.590Z,100761.00
2019-02-11T15:50:48.262Z,100775.00
2019-02-11T15:53:19.902Z,100807.00
2019-02-11T15:55:55.747Z,100789.00
2019-02-11T15:58:30.447Z,100773.00
2019-02-11T16:01:21.686Z,100786.00
2019-02-11T16:04:02.866Z,100798.00
2019-02-11T16:06:38.163Z,100808.00
2019-02-11T16:09:33.976Z,100811.00
2019-02-11T16:12:07.832Z,100829.00
2019-02-11T16:14:39.818Z,100847.00
2019-02-11T16:17:14.879Z,100844.00
2019-02-11T16:19:49.079Z,100873.00
2019-02-11T16:22:20.768Z,100871.00
2019-02-11T16:24:52.418Z,100886.00
2019-02-11T16:27:24.031Z,100906.00
2019-02-11T16:29:55.776Z,100912.00
2019-02-11T16:32:28.544Z,100939.00
2019-02-11T16:35:00.132Z,100934.00
2019-02-11T16:37:32.213Z,100939.00
2019-02-11T16:40:04.258Z,100939.00
2019-02-11T16:42:35.957Z,100961.00
2019-02-11T16:45:08.466Z,100976.00
2019-02-11T16:47:43.990Z,100979.00
2019-02-11T16:50:16.138Z,100973.00
2019-02-11T16:52:47.673Z,100996.00
2019-02-11T16:55:19.226Z,100978.00
2019-02-11T16:57:50.740Z,100997.00
2019-02-11T17:00:22.308Z,100992.00
2019-02-11T17:02:53.931Z,101014.00
2019-02-11T17:05:25.457Z,101017.00
2019-02-11T17:07:56.947Z,101013.00
2019-02-11T17:10:28.466Z,101025.00
2019-02-11T17:13:00.054Z,101032.00
2019-02-11T17:15:31.713Z,101071.00
2019-02-11T17:18:03.190Z,101068.00
2019-02-11T17:20:34.814Z,101080.00
2019-02-11T17:23:06.324Z,101082.00
2019-02-11T17:25:37.984Z,101079.00
2019-02-11T17:28:09.541Z,101091.00
2019-02-11T17:30:41.738Z,101063.00
2019-02-11T17:33:13.527Z,101075.00
2019-02-11T17:35:45.267Z,101071.00
2019-02-11T17:38:16.989Z,101076.00
2019-02-11T17:40:48.788Z,101092.00
2019-02-11T17:43:20.389Z,101090.00
2019-02-11T17:45:53.153Z,101101.00
2019-02-11T17:48:30.918Z,101110.00
2019-02-11T17:51:02.598Z,101123.00
2019-02-11T17:53:35.946Z,101119.00
2019-02-11T17:56:08.698Z,101130.00
2019-02-11T17:58:40.260Z,101123.00
2019-02-11T18:01:11.763Z,101139.00
2019-02-11T18:03:43.443Z,101127.00
2019-02-11T18:06:15.021Z,101139.00
2019-02-11T18:08:46.637Z,101152.00
2019-02-11T18:11:19.910Z,101144.00
2019-02-11T18:13:51.432Z,101136.00
2019-02-11T18:16:25.830Z,101141.00
2019-02-11T18:18:57.898Z,101148.00
2019-02-11T18:21:36.897Z,101164.00
2019-02-11T18:24:08.442Z,101173.00
2019-02-11T18:26:39.952Z,101175.00
2019-02-11T18:29:11.455Z,101172.00
2019-02-11T18:31:43.022Z,101182.00
2019-02-11T18:34:14.626Z,101192.00
2019-02-11T18:36:46.160Z,101188.00
2019-02-11T18:39:17.665Z,101188.00
2019-02-11T18:41:49.219Z,101192.00
2019-02-11T18:44:20.811Z,101205.00
2019-02-11T18:46:52.570Z,101232.00
2019-02-11T18:49:24.150Z,101218.00
2019-02-11T18:51:55.667Z,101229.00
2019-02-11T18:54:27.155Z,101242.00
2019-02-11T18:56:58.709Z,101240.00
2019-02-11T18:59:43.382Z,101250.00
2019-02-11T19:02:15.345Z,101250.00
2019-02-11T19:04:46.939Z,101265.00
2019-02-11T19:07:18.537Z,101264.00
2019-02-11T19:09:51.551Z,101264.00
2019-02-11T19:12:23.564Z,101260.00
2019-02-11T19:14:55.064Z,101250.00
2019-02-11T19:17:26.589Z,101253.00
2019-02-11T19:19:58.259Z,101260.00
2019-02-11T19:22:29.851Z,101257.00
2019-02-11T19:25:01.387Z,101268.00
2019-02-11T19:27:33.006Z,101274.00
2019-02-11T19:30:05.309Z,101280.00
2019-02-11T19:32:37.062Z,101288.00
2019-02-11T19:35:10.318Z,101295.00
2019-02-11T19:37:42.799Z,101294.00
2019-02-11T19:40:16.157Z,101290.00
2019-02-11T19:42:47.837Z,101287.00
2019-02-11T19:45:20.603Z,101299.00
2019-02-11T19:47:52.216Z,101302.00
2019-02-11T19:50:23.765Z,101294.00
2019-02-11T19:52:55.361Z,101305.00
2019-02-11T19:55:26.968Z,101301.00
2019-02-11T19:57:58.566Z,101309.00
2019-02-11T20:00:31.849Z,101306.00
2019-02-11T20:03:03.653Z,101300.00
2019-02-11T20:05:35.147Z,101282.00
2019-02-11T20:08:06.777Z,101302.00
2019-02-11T20:10:38.296Z,101297.00
2019-02-11T20:13:10.016Z,101312.00
2019-02-11T20:15:41.502Z,101297.00
2019-02-11T20:18:13.351Z,101303.00
2019-02-11T20:20:49.121Z,101301.00
2019-02-11T20:23:21.391Z,101314.00
2019-02-11T20:25:53.002Z,101309.00
2019-02-11T20:28:26.404Z,101317.00
2019-02-11T20:30:58.044Z,101316.00
2019-02-11T20:33:29.632Z,101314.00
2019-02-11T20:36:01.661Z,101328.00
2019-02-11T20:38:33.385Z,101341.00
2019-02-11T20:41:05.017Z,101339.00
2019-02-11T20:43:36.584Z,101345.00
2019-02-11T20:46:09.324Z,101293.00
2019-02-11T20:48:40.894Z,101357.00
2019-02-11T20:51:12.581Z,101362.00
2019-02-11T20:53:44.225Z,101351.00
2019-02-11T20:56:21.898Z,101370.00
2019-02-11T20:58:53.895Z,101382.00
2019-02-11T21:01:25.573Z,101380.00
2019-02-11T21:03:57.299Z,101388.00
2019-02-11T21:06:29.819Z,101385.00
2019-02-11T21:09:01.326Z,101393.00
2019-02-11T21:11:34.445Z,101390.00
2019-02-11T21:14:05.939Z,101391.00
2019-02-11T21:16:37.414Z,101388.00
2019-02-11T21:19:09.080Z,101399.00
2019-02-11T21:21:40.629Z,101401.00
2019-02-11T21:24:12.391Z,101399.00
2019-02-11T21:26:43.891Z,101361.00
2019-02-11T21:29:15.415Z,101406.00
2019-02-11T21:31:47.324Z,101409.00
2019-02-11T21:34:19.780Z,101404.00
2019-02-11T21:36:51.256Z,101423.00
2019-02-11T21:39:22.921Z,101420.00
2019-02-11T21:41:54.540Z,101425.00
2019-02-11T21:44:26.126Z,101426.00
2019-02-11T21:46:59.546Z,101424.00
2019-02-11T21:49:31.255Z,101433.00
2019-02-11T21:52:03.067Z,101437.00
2019-02-11T21:54:34.770Z,101427.00
2019-02-11T21:57:06.455Z,101440.00
2019-02-11T21:59:38.141Z,101443.00
2019-02-11T22:02:09.822Z,101450.00
2019-02-11T22:04:41.453Z,101464.00
2019-02-11T22:07:12.902Z,101451.00
2019-02-11T22:09:46.779Z,101451.00
2019-02-11T22:12:19.727Z,101443.00
2019-02-11T22:14:51.263Z,101463.00
2019-02-11T22:17:22.834Z,101456.00
2019-02-11T22:19:54.346Z,101459.00
2019-02-11T22:22:25.873Z,101463.00
2019-02-11T22:24:57.397Z,101456.00
2019-02-11T22:27:28.821Z,101454.00
2019-02-11T22:30:00.365Z,101469.00
2019-02-11T22:32:31.945Z,101467.00
2019-02-11T22:35:05.771Z,101470.00
2019-02-11T22:37:37.448Z,101489.00
2019-02-11T22:40:10.021Z,101493.00
2019-02-11T22:42:41.732Z,101508.00
2019-02-11T22:45:17.525Z,101503.00
2019-02-11T22:47:49.077Z,101496.00
2019-02-11T22:50:20.588Z,101494.00
2019-02-11T22:52:52.063Z,101507.00
2019-02-11T22:55:23.535Z,101513.00
2019-02-11T22:57:54.979Z,101498.00
2019-02-11T23:01:04.093Z,101522.00
2019-02-11T23:03:37.807Z,101514.00
2019-02-11T23:06:09.367Z,101515.00
2019-02-11T23:08:41.911Z,101508.00
2019-02-11T23:11:13.553Z,101511.00
2019-02-11T23:13:49.087Z,101509.00
2019-02-11T23:16:20.586Z,101502.00
2019-02-11T23:18:52.059Z,101509.00
2019-02-11T23:21:23.553Z,101512.00
2019-02-11T23:23:55.032Z,101526.00
2019-02-11T23:26:27.722Z,101535.00
2019-02-11T23:28:59.233Z,101534.00
2019-02-11T23:31:30.713Z,101534.00
2019-02-11T23:34:04.075Z,101523.00
2019-02-11T23:36:35.551Z,101536.00
2019-02-11T23:39:12.803Z,101530.00
2019-02-11T23:41:44.358Z,101541.00
2019-02-11T23:44:16.665Z,101543.00
2019-02-11T23:46:48.107Z,101559.00
2019-02-11T23:49:19.818Z,101567.00
2019-02-11T23:52:10.321Z,101538.00
2019-02-11T23:54:41.858Z,101534.00
2019-02-11T23:57:13.321Z,101534.00
2019-02-11T23:59:44.861Z,101541.00
